createdAt,value
2022-10-29T00:00:16.512Z,6.83
2022-10-29T00:02:43.319Z,6.87
2022-10-29T00:05:10.905Z,7.13
2022-10-29T00:07:37.581Z,8.20
2022-10-29T00:10:05.351Z,6.67
2022-10-29T00:12:32.280Z,6.40
2022-10-29T00:14:59.020Z,6.60
2022-10-29T00:17:26.039Z,7.50
2022-10-29T00:19:52.838Z,5.70
2022-10-29T00:22:19.631Z,6.20
2022-10-29T00:24:46.987Z,6.20
2022-10-29T00:27:13.706Z,6.13
2022-10-29T00:29:40.394Z,5.60
2022-10-29T00:32:07.321Z,6.73
2022-10-29T00:34:34.010Z,7.03
2022-10-29T00:37:00.723Z,6.97
2022-10-29T00:39:29.487Z,7.03
2022-10-29T00:41:56.446Z,6.70
2022-10-29T00:44:28.855Z,6.27
2022-10-29T00:47:03.835Z,7.13
2022-10-29T00:49:33.392Z,6.97
2022-10-29T00:52:03.084Z,6.33
2022-10-29T00:54:33.471Z,5.80
2022-10-29T00:57:05.267Z,6.00
2022-10-29T00:59:32.229Z,5.43
2022-10-29T01:01:59.249Z,6.47
2022-10-29T01:04:27.245Z,5.80
2022-10-29T01:06:55.405Z,5.37
2022-10-29T01:09:22.040Z,5.47
2022-10-29T01:11:55.347Z,6.00
2022-10-29T01:14:54.448Z,5.37
2022-10-29T01:17:40.930Z,5.80
2022-10-29T01:20:39.175Z,5.47
2022-10-29T01:23:17.702Z,5.80
2022-10-29T01:26:14.380Z,6.07
2022-10-29T01:29:13.297Z,6.03
2022-10-29T01:31:40.002Z,6.53
2022-10-29T01:34:34.258Z,5.97
2022-10-29T01:37:29.697Z,6.13
2022-10-29T01:40:04.045Z,5.30
2022-10-29T01:42:41.096Z,5.67
2022-10-29T01:45:11.077Z,6.10
2022-10-29T01:47:44.211Z,5.30
2022-10-29T01:50:15.351Z,5.77
2022-10-29T01:52:43.686Z,5.10
2022-10-29T01:55:10.392Z,5.70
2022-10-29T01:57:39.017Z,5.30
2022-10-29T02:00:09.125Z,4.63
2022-10-29T02:02:54.766Z,5.50
2022-10-29T02:05:57.246Z,5.57
2022-10-29T02:08:41.431Z,5.60
2022-10-29T02:11:18.072Z,6.20
2022-10-29T02:13:53.953Z,5.83
2022-10-29T02:16:22.989Z,5.80
2022-10-29T02:18:50.145Z,5.50
2022-10-29T02:21:18.130Z,5.70
2022-10-29T02:23:44.898Z,5.33
2022-10-29T02:26:12.345Z,6.47
2022-10-29T02:28:39.228Z,5.07
2022-10-29T02:31:06.095Z,5.03
2022-10-29T02:33:32.894Z,5.60
2022-10-29T02:35:59.760Z,5.43
2022-10-29T02:38:26.569Z,5.53
2022-10-29T02:40:53.220Z,5.93
2022-10-29T02:46:09.327Z,5.10
2022-10-29T02:48:36.154Z,4.73
2022-10-29T02:51:02.783Z,5.13
2022-10-29T02:53:29.526Z,5.07
2022-10-29T02:55:56.276Z,4.47
2022-10-29T02:58:23.206Z,5.77
2022-10-29T03:00:51.067Z,4.70
2022-10-29T03:03:17.959Z,5.97
2022-10-29T03:05:48.172Z,5.10
2022-10-29T03:08:16.662Z,5.47
2022-10-29T03:10:43.787Z,4.70
2022-10-29T03:13:10.935Z,5.10
2022-10-29T03:15:38.231Z,4.90
2022-10-29T03:18:05.341Z,4.80
2022-10-29T03:20:32.354Z,5.23
2022-10-29T03:22:59.119Z,5.30
2022-10-29T03:25:25.860Z,4.30
2022-10-29T03:27:52.899Z,5.03
2022-10-29T03:30:19.748Z,4.33
2022-10-29T03:32:47.871Z,4.70
2022-10-29T03:35:15.793Z,5.30
2022-10-29T03:37:42.511Z,4.50
2022-10-29T03:40:10.612Z,5.10
2022-10-29T03:42:38.871Z,4.50
2022-10-29T03:45:06.140Z,5.57
2022-10-29T03:47:33.610Z,4.87
2022-10-29T03:50:00.309Z,4.80
2022-10-29T03:52:27.201Z,5.83
2022-10-29T03:54:53.997Z,4.40
2022-10-29T03:57:21.105Z,5.80
2022-10-29T03:59:51.533Z,5.00
2022-10-29T04:02:19.658Z,5.20
2022-10-29T04:04:46.541Z,4.73
2022-10-29T04:07:13.314Z,4.90
2022-10-29T04:09:40.232Z,5.03
2022-10-29T04:12:07.651Z,5.40
2022-10-29T04:14:34.907Z,5.10
2022-10-29T04:17:01.994Z,4.97
2022-10-29T04:19:28.831Z,4.90
2022-10-29T04:26:34.663Z,5.23
2022-10-29T04:28:17.473Z,5.30
2022-10-29T04:30:15.867Z,5.50
2022-10-29T04:32:42.604Z,5.30
2022-10-29T04:35:09.367Z,5.13
2022-10-29T04:37:36.035Z,5.23
2022-10-29T04:40:02.884Z,5.67
2022-10-29T04:42:29.558Z,5.37
2022-10-29T04:44:56.263Z,5.27
2022-10-29T04:47:23.010Z,5.50
2022-10-29T04:49:49.707Z,5.63
2022-10-29T04:52:16.376Z,5.17
2022-10-29T04:54:43.170Z,5.43
2022-10-29T04:57:10.110Z,5.73
2022-10-29T04:59:36.748Z,6.33
2022-10-29T05:02:03.436Z,6.00
2022-10-29T05:04:30.129Z,6.30
2022-10-29T05:06:57.232Z,5.77
2022-10-29T05:09:24.034Z,5.17
2022-10-29T05:11:50.740Z,5.37
2022-10-29T05:14:17.368Z,5.70
2022-10-29T05:16:44.248Z,5.20
2022-10-29T05:19:10.939Z,5.67
2022-10-29T05:21:37.613Z,5.20
2022-10-29T05:24:04.512Z,6.50
2022-10-29T05:26:34.667Z,5.23
2022-10-29T05:29:01.416Z,5.80
2022-10-29T05:31:28.251Z,5.37
2022-10-29T05:33:55.994Z,5.10
2022-10-29T05:36:22.988Z,6.10
2022-10-29T05:38:49.836Z,5.30
2022-10-29T05:41:17.109Z,4.80
2022-10-29T05:43:43.843Z,4.63
2022-10-29T05:46:10.530Z,5.07
2022-10-29T05:48:37.365Z,6.27
2022-10-29T05:51:04.528Z,5.27
2022-10-29T05:53:31.244Z,6.13
2022-10-29T05:55:59.234Z,5.07
2022-10-29T05:58:26.000Z,5.27
2022-10-29T06:00:52.653Z,5.07
2022-10-29T06:03:21.731Z,5.00
2022-10-29T06:05:49.516Z,4.40
2022-10-29T06:08:17.500Z,4.90
2022-10-29T06:10:44.502Z,5.10
2022-10-29T06:13:17.923Z,5.67
2022-10-29T06:15:45.357Z,5.37
2022-10-29T06:18:12.249Z,5.33
2022-10-29T06:20:39.785Z,4.87
2022-10-29T06:23:07.090Z,6.07
2022-10-29T06:25:33.936Z,5.33
2022-10-29T06:28:06.534Z,5.13
2022-10-29T06:30:34.216Z,6.60
2022-10-29T06:33:01.568Z,5.13
2022-10-29T06:35:28.546Z,5.77
2022-10-29T06:37:56.340Z,5.00
2022-10-29T06:40:23.526Z,4.77
2022-10-29T06:42:50.400Z,5.97
2022-10-29T06:45:17.305Z,5.70
2022-10-29T06:47:45.386Z,4.70
2022-10-29T06:50:13.460Z,5.37
2022-10-29T06:52:40.336Z,4.90
2022-10-29T06:55:08.223Z,5.07
2022-10-29T06:57:35.353Z,6.13
2022-10-29T07:00:05.676Z,6.50
2022-10-29T07:02:35.501Z,5.80
2022-10-29T07:05:02.192Z,5.13
2022-10-29T07:07:29.816Z,5.73
2022-10-29T07:09:56.776Z,5.90
2022-10-29T07:12:23.615Z,5.97
2022-10-29T07:14:50.266Z,5.67
2022-10-29T07:17:17.276Z,6.10
2022-10-29T07:19:43.984Z,5.73
2022-10-29T07:22:10.729Z,5.47
2022-10-29T07:24:37.397Z,8.00
2022-10-29T07:27:06.665Z,6.03
2022-10-29T07:29:33.722Z,6.13
2022-10-29T07:32:00.474Z,6.10
2022-10-29T07:34:27.225Z,6.10
2022-10-29T07:36:53.921Z,5.80
2022-10-29T07:39:20.800Z,5.70
2022-10-29T07:41:48.562Z,6.70
2022-10-29T07:44:15.309Z,5.23
2022-10-29T07:46:42.037Z,5.50
2022-10-29T07:49:08.695Z,5.70
2022-10-29T07:51:35.420Z,4.93
2022-10-29T07:54:02.171Z,5.50
2022-10-29T07:56:28.884Z,5.50
2022-10-29T07:58:55.526Z,5.43
2022-10-29T08:01:22.445Z,4.83
2022-10-29T08:03:52.349Z,4.70
2022-10-29T08:06:19.032Z,5.17
2022-10-29T08:08:45.886Z,6.27
2022-10-29T08:11:12.651Z,5.90
2022-10-29T08:13:39.374Z,5.27
2022-10-29T08:16:06.351Z,6.17
2022-10-29T08:18:33.376Z,6.40
2022-10-29T08:21:03.895Z,5.37
2022-10-29T08:23:30.583Z,5.20
2022-10-29T08:26:00.145Z,6.03
2022-10-29T08:28:28.418Z,5.23
2022-10-29T08:30:56.093Z,5.53
2022-10-29T08:33:22.828Z,5.10
2022-10-29T08:35:49.659Z,4.50
2022-10-29T08:38:16.672Z,5.60
2022-10-29T08:41:27.280Z,6.17
2022-10-29T08:44:20.552Z,4.67
2022-10-29T08:47:07.900Z,5.33
2022-10-29T08:49:56.936Z,5.23
2022-10-29T08:52:27.788Z,4.80
2022-10-29T08:55:15.691Z,5.20
2022-10-29T08:57:47.306Z,4.80
2022-10-29T09:00:20.607Z,4.77
2022-10-29T09:02:57.827Z,5.17
2022-10-29T09:05:31.805Z,4.50
2022-10-29T09:08:26.468Z,5.13
2022-10-29T09:11:01.418Z,4.53
2022-10-29T09:13:37.579Z,4.80
2022-10-29T09:16:34.840Z,5.07
2022-10-29T09:19:11.114Z,5.43
2022-10-29T09:21:43.854Z,4.97
2022-10-29T09:24:43.257Z,5.13
2022-10-29T09:27:35.184Z,5.00
2022-10-29T09:30:17.335Z,4.50
2022-10-29T09:33:02.599Z,5.10
2022-10-29T09:35:48.051Z,5.90
2022-10-29T09:38:23.615Z,5.43
2022-10-29T09:40:50.469Z,5.17
2022-10-29T09:43:22.098Z,5.30
2022-10-29T09:46:05.630Z,5.27
2022-10-29T09:48:45.525Z,5.33
2022-10-29T09:51:54.830Z,4.90
2022-10-29T09:54:24.275Z,5.57
2022-10-29T09:56:54.878Z,5.27
2022-10-29T09:59:36.983Z,5.40
2022-10-29T10:02:30.672Z,4.97
2022-10-29T10:05:12.569Z,4.13
2022-10-29T10:07:40.211Z,4.90
2022-10-29T10:10:24.214Z,5.27
2022-10-29T10:12:51.408Z,4.83
2022-10-29T10:15:28.981Z,4.83
2022-10-29T10:18:15.545Z,5.13
2022-10-29T10:20:49.541Z,4.60
2022-10-29T10:23:22.001Z,5.37
2022-10-29T10:25:49.571Z,4.70
2022-10-29T10:28:20.602Z,4.73
2022-10-29T10:31:08.465Z,6.30
2022-10-29T10:33:43.603Z,4.77
2022-10-29T10:36:10.878Z,5.43
2022-10-29T10:38:49.882Z,5.17
2022-10-29T10:41:27.590Z,5.30
2022-10-29T10:44:01.930Z,4.77
2022-10-29T10:46:40.646Z,5.47
2022-10-29T10:49:15.949Z,4.63
2022-10-29T10:52:05.748Z,4.47
2022-10-29T10:54:42.110Z,5.00
2022-10-29T10:57:11.757Z,5.23
2022-10-29T11:00:02.229Z,5.17
2022-10-29T11:02:46.900Z,4.87
2022-10-29T11:05:22.186Z,4.50
2022-10-29T11:08:13.079Z,4.50
2022-10-29T11:11:03.947Z,3.80
2022-10-29T11:13:33.576Z,4.27
2022-10-29T11:16:48.037Z,4.53
2022-10-29T11:19:26.081Z,4.43
2022-10-29T11:22:19.089Z,4.33
2022-10-29T11:24:48.909Z,3.50
2022-10-29T11:27:45.481Z,4.03
2022-10-29T11:30:17.542Z,4.50
2022-10-29T11:33:09.447Z,4.37
2022-10-29T11:36:03.646Z,4.10
2022-10-29T11:38:53.913Z,4.93
2022-10-29T11:41:36.801Z,4.60
2022-10-29T11:44:03.723Z,4.43
2022-10-29T11:47:00.799Z,4.47
2022-10-29T11:49:55.688Z,4.90
2022-10-29T11:52:50.943Z,4.50
2022-10-29T11:55:20.502Z,4.30
2022-10-29T11:57:59.217Z,4.37
2022-10-29T12:00:31.931Z,4.30
2022-10-29T12:03:17.428Z,4.73
2022-10-29T12:06:13.765Z,4.97
2022-10-29T12:09:02.066Z,5.30
2022-10-29T12:11:44.628Z,5.03
2022-10-29T12:14:33.346Z,5.40
2022-10-29T12:17:15.895Z,4.83
2022-10-29T12:19:59.564Z,4.77
2022-10-29T12:23:03.992Z,5.40
2022-10-29T12:25:53.084Z,5.20
2022-10-29T12:28:52.342Z,5.40
2022-10-29T12:31:48.356Z,5.47
2022-10-29T12:34:25.247Z,5.97
2022-10-29T12:37:18.495Z,6.40
2022-10-29T12:39:49.864Z,5.77
2022-10-29T12:42:24.257Z,6.63
2022-10-29T12:46:18.600Z,5.30
2022-10-29T12:48:55.633Z,4.97
2022-10-29T12:51:37.481Z,4.33
2022-10-29T12:54:31.935Z,4.80
2022-10-29T12:57:31.855Z,5.00
2022-10-29T13:00:24.390Z,4.70
2022-10-29T13:02:52.191Z,4.53
2022-10-29T13:05:41.794Z,4.97
2022-10-29T13:08:26.964Z,4.57
2022-10-29T13:10:56.340Z,5.10
2022-10-29T13:13:36.467Z,4.77
2022-10-29T13:16:16.943Z,4.43
2022-10-29T13:19:01.861Z,4.10
2022-10-29T13:22:04.400Z,5.03
2022-10-29T13:24:31.635Z,4.83
2022-10-29T13:26:59.558Z,4.80
2022-10-29T13:29:42.461Z,4.37
2022-10-29T13:32:28.484Z,4.43
2022-10-29T13:35:00.452Z,4.57
2022-10-29T13:37:49.244Z,4.20
2022-10-29T13:40:22.325Z,4.87
2022-10-29T13:43:08.049Z,4.30
2022-10-29T13:45:38.191Z,4.63
2022-10-29T13:48:14.867Z,3.77
2022-10-29T13:50:42.784Z,4.70
2022-10-29T13:53:13.995Z,4.70
2022-10-29T13:55:44.505Z,4.20
2022-10-29T13:58:22.548Z,4.80
2022-10-29T14:00:50.354Z,4.10
2022-10-29T14:03:26.668Z,4.47
2022-10-29T14:06:00.279Z,5.40
2022-10-29T14:08:44.218Z,4.03
2022-10-29T14:11:23.405Z,5.00
2022-10-29T14:13:53.261Z,5.00
2022-10-29T14:16:28.996Z,4.60
2022-10-29T14:18:55.843Z,4.97
2022-10-29T14:21:23.722Z,4.73
2022-10-29T14:24:03.802Z,5.03
2022-10-29T14:26:32.523Z,5.67
2022-10-29T14:29:22.817Z,4.97
2022-10-29T14:32:12.739Z,4.70
2022-10-29T14:34:45.256Z,5.20
2022-10-29T14:37:19.082Z,4.60
2022-10-29T14:39:58.485Z,5.80
2022-10-29T14:42:32.352Z,5.60
2022-10-29T14:45:02.879Z,6.70
2022-10-29T14:47:35.662Z,4.83
2022-10-29T14:50:14.806Z,5.57
2022-10-29T14:52:48.558Z,5.70
2022-10-29T14:55:33.201Z,5.83
2022-10-29T14:58:11.962Z,5.87
2022-10-29T15:00:49.077Z,5.33
2022-10-29T15:03:20.583Z,5.53
2022-10-29T15:05:48.157Z,5.10
2022-10-29T15:08:19.175Z,5.27
2022-10-29T15:10:51.512Z,5.63
2022-10-29T15:13:27.327Z,6.07
2022-10-29T15:16:17.234Z,5.23
2022-10-29T15:18:49.151Z,6.17
2022-10-29T15:21:23.436Z,5.30
2022-10-29T15:23:58.347Z,6.40
2022-10-29T15:26:25.052Z,6.47
2022-10-29T15:28:54.862Z,6.40
2022-10-29T15:31:34.173Z,6.30
2022-10-29T15:34:24.144Z,6.90
2022-10-29T15:37:00.129Z,7.03
2022-10-29T15:39:56.565Z,7.13
2022-10-29T15:42:26.991Z,6.23
2022-10-29T15:45:08.844Z,8.37
2022-10-29T15:47:41.068Z,7.63
2022-10-29T15:50:11.972Z,6.50
2022-10-29T15:52:42.547Z,7.37
2022-10-29T15:55:42.357Z,6.13
2022-10-29T15:58:17.266Z,6.43
2022-10-29T16:00:44.530Z,5.93
2022-10-29T16:03:19.384Z,6.40
2022-10-29T16:05:49.319Z,6.27
2022-10-29T16:08:29.854Z,7.20
2022-10-29T16:10:57.978Z,6.57
2022-10-29T16:13:25.862Z,7.83
2022-10-29T16:15:52.730Z,8.10
2022-10-29T16:18:19.585Z,7.90
2022-10-29T16:20:47.072Z,7.70
2022-10-29T16:23:14.682Z,9.33
2022-10-29T16:25:41.595Z,7.70
2022-10-29T16:28:09.290Z,7.63
2022-10-29T16:33:11.361Z,8.20
2022-10-29T16:35:38.225Z,8.40
2022-10-29T16:38:04.930Z,7.53
2022-10-29T16:40:31.758Z,7.73
2022-10-29T16:42:58.866Z,7.67
2022-10-29T16:45:29.857Z,6.87
2022-10-29T16:47:57.464Z,8.37
2022-10-29T16:50:26.640Z,8.37
2022-10-29T16:53:01.614Z,7.53
2022-10-29T16:55:29.560Z,6.90
2022-10-29T16:57:57.198Z,7.77
2022-10-29T17:00:31.856Z,7.93
2022-10-29T17:03:05.042Z,8.33
2022-10-29T17:05:38.527Z,8.20
2022-10-29T17:08:05.628Z,9.27
2022-10-29T17:10:32.454Z,8.87
2022-10-29T17:13:00.222Z,8.43
2022-10-29T17:15:27.382Z,8.17
2022-10-29T17:17:54.183Z,8.20
2022-10-29T17:20:21.444Z,8.50
2022-10-29T17:22:48.160Z,9.60
2022-10-29T17:25:14.892Z,9.10
2022-10-29T17:27:42.209Z,8.80
2022-10-29T17:30:10.662Z,8.70
2022-10-29T17:32:37.575Z,8.20
2022-10-29T17:35:04.582Z,9.33
2022-10-29T17:37:31.549Z,9.67
2022-10-29T17:40:02.964Z,11.40
2022-10-29T17:42:33.635Z,10.07
2022-10-29T17:45:00.469Z,9.67
2022-10-29T17:47:27.343Z,9.57
2022-10-29T17:49:54.091Z,10.93
2022-10-29T17:52:20.985Z,10.10
2022-10-29T17:54:47.718Z,10.70
2022-10-29T17:57:14.456Z,14.50
2022-10-29T17:59:41.101Z,15.70
2022-10-29T18:02:11.224Z,13.27
2022-10-29T18:04:38.272Z,11.47
2022-10-29T18:07:05.051Z,10.53
2022-10-29T18:09:31.735Z,11.93
2022-10-29T18:11:58.512Z,10.37
2022-10-29T18:14:25.261Z,10.17
2022-10-29T18:16:52.035Z,9.83
2022-10-29T18:19:18.724Z,9.27
2022-10-29T18:21:45.514Z,9.20
2022-10-29T18:24:12.345Z,9.20
2022-10-29T18:26:39.041Z,9.57
2022-10-29T18:29:08.687Z,9.80
2022-10-29T18:31:37.533Z,9.37
2022-10-29T18:34:07.506Z,9.57
2022-10-29T18:36:35.632Z,9.53
2022-10-29T18:39:04.004Z,9.43
2022-10-29T18:41:30.821Z,9.43
2022-10-29T18:43:58.631Z,9.33
2022-10-29T18:46:25.695Z,9.13
2022-10-29T18:48:53.135Z,9.57
2022-10-29T18:51:24.299Z,10.13
2022-10-29T18:53:51.991Z,9.53
2022-10-29T18:56:20.834Z,10.53
2022-10-29T18:58:48.192Z,9.07
2022-10-29T19:01:22.711Z,10.70
2022-10-29T19:03:54.840Z,10.37
2022-10-29T19:06:22.847Z,10.67
2022-10-29T19:08:49.544Z,10.37
2022-10-29T19:11:22.131Z,11.43
2022-10-29T19:14:00.267Z,13.57
2022-10-29T19:16:28.268Z,13.30
2022-10-29T19:19:00.203Z,12.20
2022-10-29T19:21:27.680Z,12.87
2022-10-29T19:23:59.492Z,12.90
2022-10-29T19:26:28.614Z,12.80
2022-10-29T19:28:56.088Z,12.97
2022-10-29T19:31:28.450Z,11.43
2022-10-29T19:34:00.465Z,10.97
2022-10-29T19:36:28.939Z,11.90
2022-10-29T19:38:56.178Z,12.40
2022-10-29T19:41:23.301Z,13.20
2022-10-29T19:43:50.278Z,12.87
2022-10-29T19:46:22.848Z,12.80
2022-10-29T19:48:51.609Z,14.23
2022-10-29T19:51:19.033Z,13.07
2022-10-29T19:53:46.212Z,13.23
2022-10-29T19:56:15.015Z,12.53
2022-10-29T19:58:42.268Z,14.17
2022-10-29T20:01:12.572Z,11.60
2022-10-29T20:03:39.474Z,11.47
2022-10-29T20:06:09.078Z,9.40
2022-10-29T20:08:39.019Z,10.37
2022-10-29T20:11:06.178Z,8.97
2022-10-29T20:13:32.923Z,9.13
2022-10-29T20:16:01.353Z,9.37
2022-10-29T20:18:28.110Z,10.73
2022-10-29T20:20:56.312Z,10.37
2022-10-29T20:23:25.517Z,10.13
2022-10-29T20:25:52.449Z,10.40
2022-10-29T20:28:19.317Z,9.40
2022-10-29T20:30:46.199Z,11.40
2022-10-29T20:33:12.912Z,9.80
2022-10-29T20:35:40.240Z,10.77
2022-10-29T20:38:07.161Z,10.00
2022-10-29T20:40:34.126Z,9.67
2022-10-29T20:43:01.165Z,8.93
2022-10-29T20:45:27.954Z,8.37
2022-10-29T20:47:54.988Z,8.73
2022-10-29T20:50:21.994Z,8.97
2022-10-29T20:52:50.533Z,9.13
2022-10-29T20:55:17.256Z,9.07
2022-10-29T20:57:43.954Z,8.57
2022-10-29T21:00:11.106Z,8.80
2022-10-29T21:02:37.954Z,8.40
2022-10-29T21:05:05.020Z,9.73
2022-10-29T21:07:31.847Z,8.93
2022-10-29T21:09:58.642Z,8.93
2022-10-29T21:12:25.408Z,9.50
2022-10-29T21:14:52.104Z,8.73
2022-10-29T21:17:18.821Z,8.20
2022-10-29T21:19:45.630Z,9.73
2022-10-29T21:22:14.921Z,9.77
2022-10-29T21:24:44.628Z,13.23
2022-10-29T21:27:12.555Z,9.70
2022-10-29T21:29:39.361Z,9.93
2022-10-29T21:32:06.359Z,10.37
2022-10-29T21:34:33.120Z,9.43
2022-10-29T21:36:59.885Z,9.57
2022-10-29T21:39:27.618Z,8.53
2022-10-29T21:41:54.304Z,8.63
2022-10-29T21:44:21.044Z,8.00
2022-10-29T21:46:47.798Z,8.53
2022-10-29T21:49:14.456Z,9.37
2022-10-29T21:51:41.267Z,8.43
2022-10-29T21:54:08.134Z,8.63
2022-10-29T21:56:34.977Z,7.77
2022-10-29T21:59:01.730Z,7.50
2022-10-29T22:01:28.683Z,7.80
2022-10-29T22:03:55.591Z,8.30
2022-10-29T22:06:25.690Z,8.77
2022-10-29T22:08:54.889Z,8.20
2022-10-29T22:11:22.268Z,8.50
2022-10-29T22:13:49.131Z,9.20
2022-10-29T22:16:15.797Z,7.87
2022-10-29T22:18:42.794Z,9.17
2022-10-29T22:21:15.586Z,8.73
2022-10-29T22:23:47.255Z,8.47
2022-10-29T22:26:16.287Z,7.90
2022-10-29T22:28:43.348Z,7.77
2022-10-29T22:31:10.888Z,7.67
2022-10-29T22:33:37.620Z,6.67
2022-10-29T22:36:10.795Z,7.17
2022-10-29T22:38:37.931Z,7.70
2022-10-29T22:41:06.945Z,7.27
2022-10-29T22:43:33.666Z,7.73
2022-10-29T22:46:01.454Z,7.40
2022-10-29T22:48:28.144Z,8.60
2022-10-29T22:51:05.485Z,8.03
2022-10-29T22:53:33.013Z,7.97
2022-10-29T22:56:01.046Z,7.60
2022-10-29T22:58:28.130Z,8.40
2022-10-29T23:01:22.927Z,8.30
2022-10-29T23:03:50.170Z,7.57
2022-10-29T23:06:19.287Z,7.57
2022-10-29T23:08:47.354Z,6.97
2022-10-29T23:11:19.378Z,7.83
2022-10-29T23:13:50.684Z,7.23
2022-10-29T23:16:17.701Z,7.97
2022-10-29T23:18:51.751Z,8.00
2022-10-29T23:21:19.546Z,6.57
2022-10-29T23:23:47.052Z,7.03
2022-10-29T23:26:15.207Z,6.67
2022-10-29T23:28:42.669Z,6.73
2022-10-29T23:31:15.160Z,7.60
2022-10-29T23:34:08.510Z,6.50
2022-10-29T23:36:35.264Z,7.17
2022-10-29T23:39:02.053Z,7.80
2022-10-29T23:41:30.276Z,6.40
2022-10-29T23:43:57.548Z,7.10
2022-10-29T23:46:24.751Z,7.23
2022-10-29T23:48:51.738Z,7.10
2022-10-29T23:51:18.505Z,6.57
2022-10-29T23:53:45.502Z,7.07
2022-10-29T23:56:12.271Z,6.47
2022-10-29T23:58:39.024Z,7.70
